createdAt,value
2018-10-01T00:01:49.893Z,1016.7
2018-10-01T00:06:49.396Z,1016.7
2018-10-01T00:11:50.057Z,1016.6
2018-10-01T00:16:49.888Z,1016.5
2018-10-01T00:21:50.345Z,1016.7
2018-10-01T00:26:49.924Z,1016.8
2018-10-01T00:31:50.233Z,1016.7
2018-10-01T00:36:49.650Z,1016.8
2018-10-01T00:41:49.883Z,1016.7
2018-10-01T00:46:50.209Z,1016.7
2018-10-01T00:51:49.692Z,1016.6
2018-10-01T00:56:49.300Z,1016.7
2018-10-01T01:01:49.594Z,1016.6
2018-10-01T01:06:50.075Z,1016.3
2018-10-01T01:11:49.326Z,1016.5
2018-10-01T01:16:49.704Z,1016.5
2018-10-01T01:21:50.087Z,1016.5
2018-10-01T01:26:49.672Z,1016.4
2018-10-01T01:31:49.995Z,1016.3
2018-10-01T01:36:49.440Z,1016.4
2018-10-01T01:41:49.657Z,1016.4
2018-10-01T01:46:49.963Z,1016.4
2018-10-01T01:51:49.395Z,1016.6
2018-10-01T01:56:49.999Z,1016.6
2018-10-01T02:01:49.315Z,1016.6
2018-10-01T02:06:49.820Z,1016.6
2018-10-01T02:11:50.094Z,1016.7
2018-10-01T02:16:49.386Z,1016.7
2018-10-01T02:21:49.837Z,1016.7
2018-10-01T02:26:49.415Z,1016.7
2018-10-01T02:31:49.700Z,1016.7
2018-10-01T02:36:50.144Z,1016.8
2018-10-01T02:41:49.470Z,1016.8
2018-10-01T02:46:49.800Z,1016.8
2018-10-01T02:51:50.181Z,1016.9
2018-10-01T02:56:49.786Z,1016.9
2018-10-01T03:01:50.068Z,1016.9
2018-10-01T03:06:49.591Z,1016.9
2018-10-01T03:11:49.786Z,1016.9
2018-10-01T03:16:50.160Z,1017
2018-10-01T03:21:49.578Z,1016.9
2018-10-01T03:26:50.246Z,1016.8
2018-10-01T03:31:49.562Z,1016.8
2018-10-01T03:36:50.038Z,1016.8
2018-10-01T03:41:50.112Z,1016.8
2018-10-01T03:46:49.435Z,1016.8
2018-10-01T03:51:49.918Z,1016.8
2018-10-01T03:56:49.514Z,1016.8
2018-10-01T04:01:49.798Z,1016.8
2018-10-01T04:06:50.276Z,1016.8
2018-10-01T04:11:49.517Z,1016.9
2018-10-01T04:16:49.750Z,1017
2018-10-01T04:21:50.221Z,1016.9
2018-10-01T04:26:49.835Z,1016.8
2018-10-01T04:31:50.531Z,1016.9
2018-10-01T04:36:49.573Z,1016.9
2018-10-01T04:41:49.814Z,1016.9
2018-10-01T04:46:50.633Z,1016.9
2018-10-01T04:51:49.575Z,1017
2018-10-01T04:56:50.194Z,1017.1
2018-10-01T05:01:49.490Z,1017.2
2018-10-01T05:06:49.932Z,1017.1
2018-10-01T05:11:50.043Z,1017.2
2018-10-01T05:16:49.312Z,1017.2
2018-10-01T05:21:49.805Z,1017.3
2018-10-01T05:26:49.330Z,1017.2
2018-10-01T05:31:49.669Z,1017.3
2018-10-01T05:36:50.108Z,1017.2
2018-10-01T05:41:49.372Z,1017.3
2018-10-01T05:46:49.625Z,1017.4
2018-10-01T05:51:50.075Z,1017.5
2018-10-01T05:56:49.708Z,1017.6
2018-10-01T06:01:50.008Z,1017.6
2018-10-01T06:06:49.458Z,1017.6
2018-10-01T06:11:50.096Z,1017.6
2018-10-01T06:16:49.968Z,1017.8
2018-10-01T06:21:49.461Z,1017.9
2018-10-01T06:26:50.021Z,1017.9
2018-10-01T06:31:49.331Z,1018.1
2018-10-01T06:36:49.817Z,1018.1
2018-10-01T06:41:51.009Z,1018.2
2018-10-01T06:46:49.351Z,1018.2
2018-10-01T06:51:49.814Z,1018.3
2018-10-01T06:56:49.374Z,1018.3
2018-10-01T07:01:49.669Z,1018.3
2018-10-01T07:06:50.178Z,1018.4
2018-10-01T07:11:49.399Z,1018.4
2018-10-01T07:16:50.194Z,1018.5
2018-10-01T07:21:50.180Z,1018.6
2018-10-01T07:26:49.739Z,1018.6
2018-10-01T07:31:50.015Z,1018.6
2018-10-01T07:36:49.553Z,1018.7
2018-10-01T07:41:49.649Z,1018.6
2018-10-01T07:46:50.016Z,1018.6
2018-10-01T07:51:49.492Z,1018.7
2018-10-01T07:56:49.972Z,1018.7
2018-10-01T08:01:49.300Z,1018.7
2018-10-01T08:06:49.841Z,1018.7
2018-10-01T08:11:50.044Z,1018.8
2018-10-01T08:16:49.309Z,1018.9
2018-10-01T08:21:49.792Z,1018.9
2018-10-01T08:26:49.337Z,1019
2018-10-01T08:31:49.624Z,1019.1
2018-10-01T08:36:50.160Z,1019.2
2018-10-01T08:41:49.334Z,1019.3
2018-10-01T08:46:49.610Z,1019.2
2018-10-01T08:51:50.839Z,1019.3
2018-10-01T08:56:49.668Z,1019.4
2018-10-01T09:01:49.954Z,1019.4
2018-10-01T09:06:50.099Z,1019.4
2018-10-01T09:11:49.722Z,1019.3
2018-10-01T09:16:50.023Z,1019.3
2018-10-01T09:21:49.485Z,1019.5
2018-10-01T09:26:49.990Z,1019.4
2018-10-01T09:31:49.286Z,1019.5
2018-10-01T09:36:49.795Z,1019.5
2018-10-01T09:41:49.993Z,1019.5
2018-10-01T09:46:49.381Z,1019.5
2018-10-01T09:51:49.799Z,1019.4
2018-10-01T09:56:49.325Z,1019.5
2018-10-01T10:01:49.655Z,1019.5
2018-10-01T10:06:50.140Z,1019.4
2018-10-01T10:11:49.326Z,1019.3
2018-10-01T10:16:50.955Z,1019.4
2018-10-01T10:21:50.078Z,1019.5
2018-10-01T10:26:49.683Z,1019.6
2018-10-01T10:31:49.947Z,1019.5
2018-10-01T10:36:49.448Z,1019.4
2018-10-01T10:41:50.153Z,1019.4
2018-10-01T10:46:49.959Z,1019.4
2018-10-01T10:51:49.387Z,1019.5
2018-10-01T10:56:50.389Z,1019.6
2018-10-01T11:01:49.308Z,1019.6
2018-10-01T11:06:49.807Z,1019.7
2018-10-01T11:11:50.033Z,1019.5
2018-10-01T11:16:49.312Z,1019.7
2018-10-01T11:21:50.297Z,1020
2018-10-01T11:26:49.738Z,1020.4
2018-10-01T11:31:51.091Z,1020.5
2018-10-01T11:36:50.088Z,1020.5
2018-10-01T11:41:49.304Z,1020.4
2018-10-01T11:46:49.642Z,1020.5
2018-10-01T11:51:50.078Z,1020.7
2018-10-01T11:56:49.628Z,1020.7
2018-10-01T12:01:50.022Z,1020.7
2018-10-01T12:06:49.449Z,1020.8
2018-10-01T12:11:49.659Z,1020.8
2018-10-01T12:16:49.948Z,1020.9
2018-10-01T12:21:50.225Z,1020.8
2018-10-01T12:26:50.014Z,1020.7
2018-10-01T12:31:49.365Z,1020.7
2018-10-01T12:36:49.771Z,1020.6
2018-10-01T12:41:49.907Z,1020.6
2018-10-01T12:46:49.322Z,1020.6
2018-10-01T12:51:51.565Z,1020.6
2018-10-01T12:56:49.261Z,1020.6
2018-10-01T13:01:49.522Z,1020.5
2018-10-01T13:06:50.803Z,1020.4
2018-10-01T13:11:49.263Z,1020.3
2018-10-01T13:16:49.570Z,1020.2
2018-10-01T13:21:50.110Z,1020.3
2018-10-01T13:26:49.743Z,1020.3
2018-10-01T13:31:50.412Z,1020.5
2018-10-01T13:36:49.756Z,1020.6
2018-10-01T13:41:50.084Z,1020.7
2018-10-01T13:46:49.889Z,1020.6
2018-10-01T13:51:49.375Z,1020.6
2018-10-01T13:56:49.920Z,1020.6
2018-10-01T14:01:49.592Z,1020.8
2018-10-01T14:06:49.733Z,1020.7
2018-10-01T14:11:49.964Z,1020.7
2018-10-01T14:16:50.064Z,1020.8
2018-10-01T14:21:49.718Z,1020.8
2018-10-01T14:26:49.259Z,1021
2018-10-01T14:31:49.571Z,1020.9
2018-10-01T14:36:51.130Z,1020.8
2018-10-01T14:41:49.227Z,1020.9
2018-10-01T14:46:49.519Z,1021
2018-10-01T14:51:50.179Z,1021
2018-10-01T14:56:50.088Z,1021
2018-10-01T15:01:49.966Z,1021
2018-10-01T15:06:49.358Z,1021.1
2018-10-01T15:11:49.874Z,1021.1
2018-10-01T15:16:50.102Z,1021.3
2018-10-01T15:21:49.416Z,1021.3
2018-10-01T15:26:49.898Z,1021.4
2018-10-01T15:31:49.201Z,1021.4
2018-10-01T15:36:49.675Z,1021.4
2018-10-01T15:41:49.920Z,1021.6
2018-10-01T15:46:49.194Z,1021.5
2018-10-01T15:51:49.647Z,1021.7
2018-10-01T15:56:49.218Z,1021.7
2018-10-01T16:01:49.597Z,1021.9
2018-10-01T16:06:50.014Z,1022
2018-10-01T16:11:49.225Z,1022
2018-10-01T16:16:49.545Z,1022
2018-10-01T16:21:50.030Z,1022
2018-10-01T16:26:49.627Z,1022
2018-10-01T16:31:49.861Z,1022
2018-10-01T16:36:49.436Z,1022
2018-10-01T16:41:49.574Z,1022.1
2018-10-01T16:46:49.912Z,1022.2
2018-10-01T16:51:49.392Z,1022.2
2018-10-01T16:56:49.981Z,1022.3
2018-10-01T17:01:49.337Z,1022.4
2018-10-01T17:06:49.912Z,1022.4
2018-10-01T17:11:50.037Z,1022.5
2018-10-01T17:16:49.308Z,1022.8
2018-10-01T17:21:49.764Z,1022.9
2018-10-01T17:26:49.361Z,1023.3
2018-10-01T17:31:49.591Z,1023.4
2018-10-01T17:36:50.102Z,1023.3
2018-10-01T17:41:49.308Z,1023.2
2018-10-01T17:46:49.615Z,1023.3
2018-10-01T17:51:50.042Z,1023.4
2018-10-01T17:56:49.730Z,1023.4
2018-10-01T18:01:49.925Z,1023.5
2018-10-01T18:06:49.498Z,1023.6
2018-10-01T18:11:50.169Z,1023.6
2018-10-01T18:16:50.029Z,1023.6
2018-10-01T18:21:50.470Z,1023.6
2018-10-01T18:26:49.985Z,1023.7
2018-10-01T18:31:49.308Z,1023.7
2018-10-01T18:36:49.758Z,1023.8
2018-10-01T18:41:50.290Z,1023.8
2018-10-01T18:46:49.322Z,1023.9
2018-10-01T18:51:49.796Z,1024
2018-10-01T18:56:49.456Z,1024
2018-10-01T19:01:49.796Z,1024
2018-10-01T19:06:50.078Z,1023.9
2018-10-01T19:11:49.727Z,1023.9
2018-10-01T19:16:49.974Z,1023.9
2018-10-01T19:21:50.096Z,1023.8
2018-10-01T19:26:50.054Z,1023.9
2018-10-01T19:31:49.927Z,1024
2018-10-01T19:36:49.404Z,1024
2018-10-01T19:41:49.652Z,1024.1
2018-10-01T19:46:50.558Z,1024.1
2018-10-01T19:51:49.429Z,1024.1
2018-10-01T19:56:50.500Z,1024
2018-10-01T20:01:49.294Z,1024
2018-10-01T20:06:49.774Z,1024.1
2018-10-01T20:11:50.787Z,1024
2018-10-01T20:16:49.810Z,1024.2
2018-10-01T20:21:50.102Z,1024.2
2018-10-01T20:26:51.330Z,1024.1
2018-10-01T20:31:50.226Z,1024.2
2018-10-01T20:36:50.124Z,1024.1
2018-10-01T20:41:49.721Z,1024.2
2018-10-01T20:46:50.038Z,1024.2
2018-10-01T20:51:50.062Z,1024.2
2018-10-01T20:56:49.704Z,1024.3
2018-10-01T21:01:49.936Z,1024.3
2018-10-01T21:06:49.560Z,1024.3
2018-10-01T21:11:49.768Z,1024.3
2018-10-01T21:16:50.145Z,1024.3
2018-10-01T21:21:49.480Z,1024.3
2018-10-01T21:26:50.058Z,1024.3
2018-10-01T21:31:49.316Z,1024.2
2018-10-01T21:36:49.791Z,1024.3
2018-10-01T21:41:50.025Z,1024.3
2018-10-01T21:46:49.253Z,1024.3
2018-10-01T21:51:49.740Z,1024.2
2018-10-01T21:56:49.277Z,1024.2
2018-10-01T22:01:49.669Z,1024.2
2018-10-01T22:06:50.129Z,1024.1
2018-10-01T22:11:49.322Z,1024.2
2018-10-01T22:16:49.643Z,1024.2
2018-10-01T22:21:50.105Z,1024.2
2018-10-01T22:26:49.668Z,1024.2
2018-10-01T22:31:49.937Z,1024.1
2018-10-01T22:36:49.470Z,1024.1
2018-10-01T22:41:49.663Z,1024.1
2018-10-01T22:46:50.026Z,1024
2018-10-01T22:51:49.868Z,1024
2018-10-01T22:56:50.007Z,1024
2018-10-01T23:01:49.378Z,1024
2018-10-01T23:06:49.824Z,1024
2018-10-01T23:11:51.084Z,1024
2018-10-01T23:16:49.311Z,1024.1
2018-10-01T23:21:49.788Z,1024
2018-10-01T23:26:49.343Z,1024
2018-10-01T23:31:49.650Z,1024
2018-10-01T23:36:50.061Z,1024.1
2018-10-01T23:41:49.303Z,1024
2018-10-01T23:46:49.694Z,1024
2018-10-01T23:51:49.363Z,1023.9
2018-10-01T23:56:49.402Z,1024
